LFRM/LME METAR and TAF weather

Enter ICAO airport designator
Station Type Date Time Source
LFRM METAR 2021/05/11 00:00 UTC NOAA

LFRM 110000Z AUTO VRB01KT CAVOK 08/07 Q1008


Station Type Date Time Source
LFRM Decoded METAR 2021/05/11 00:00 UTC NOAA

Le Mans, France (LFRM) 47-56N 000-12E 52M
May 10, 2021 - 08:00 PM EDT / 2021.05.11 0000 UTC
Wind: Variable at 1 MPH (1 KT):0
Visibility: greater than 7 mile(s):0
Temperature: 46 F (8 C)
Dew Point: 44 F (7 C)
Relative Humidity: 93%
Pressure (altimeter): 29.77 in. Hg (1008 hPa)
ob: LFRM 110000Z AUTO VRB01KT CAVOK 08/07 Q1008
cycle: 0

Station Type Date Time Source
LFRM TAF 2021/05/10 21:15 UTC NOAA

TAF LFRM 102109Z 1021/1118 CNL

Example: see airport list